sensor_id;sensor_type;location;lat;lon;timestamp;temperature;humidity
19389;DHT22;9830;41.876;23.474;2022-12-18T00:01:25;8.50;99.90
19389;DHT22;9830;41.876;23.474;2022-12-18T00:03:53;8.60;99.90
19389;DHT22;9830;41.876;23.474;2022-12-18T00:06:19;8.80;99.90
19389;DHT22;9830;41.876;23.474;2022-12-18T00:08:46;8.70;99.90
19389;DHT22;9830;41.876;23.474;2022-12-18T00:11:17;8.70;99.90
19389;DHT22;9830;41.876;23.474;2022-12-18T00:13:44;8.70;99.90
19389;DHT22;9830;41.876;23.474;2022-12-18T00:16:12;8.70;99.90
19389;DHT22;9830;41.876;23.474;2022-12-18T00:18:39;8.70;99.90
19389;DHT22;9830;41.876;23.474;2022-12-18T00:21:08;8.70;99.90
19389;DHT22;9830;41.876;23.474;2022-12-18T00:23:36;8.60;99.90
19389;DHT22;9830;41.876;23.474;2022-12-18T00:26:04;8.60;99.90
19389;DHT22;9830;41.876;23.474;2022-12-18T00:28:30;8.60;99.90
19389;DHT22;9830;41.876;23.474;2022-12-18T00:31:07;8.50;99.90
19389;DHT22;9830;41.876;23.474;2022-12-18T00:33:34;8.50;99.90
19389;DHT22;9830;41.876;23.474;2022-12-18T00:36:02;8.50;99.90
19389;DHT22;9830;41.876;23.474;2022-12-18T00:38:28;8.50;99.90
19389;DHT22;9830;41.876;23.474;2022-12-18T00:40:54;8.50;99.90
19389;DHT22;9830;41.876;23.474;2022-12-18T00:43:20;8.50;99.90
19389;DHT22;9830;41.876;23.474;2022-12-18T00:45:45;8.50;99.90
19389;DHT22;9830;41.876;23.474;2022-12-18T00:48:11;8.50;99.90
19389;DHT22;9830;41.876;23.474;2022-12-18T00:50:37;8.50;99.90
19389;DHT22;9830;41.876;23.474;2022-12-18T00:53:02;8.60;99.90
19389;DHT22;9830;41.876;23.474;2022-12-18T00:55:28;8.60;99.90
19389;DHT22;9830;41.876;23.474;2022-12-18T00:57:53;8.60;99.90
19389;DHT22;9830;41.876;23.474;2022-12-18T01:00:19;8.60;99.90
19389;DHT22;9830;41.876;23.474;2022-12-18T01:02:45;8.60;99.90
19389;DHT22;9830;41.876;23.474;2022-12-18T01:05:12;8.70;99.90
19389;DHT22;9830;41.876;23.474;2022-12-18T01:07:38;8.60;99.90
19389;DHT22;9830;41.876;23.474;2022-12-18T01:10:05;8.70;99.90
19389;DHT22;9830;41.876;23.474;2022-12-18T01:12:31;8.60;99.90
19389;DHT22;9830;41.876;23.474;2022-12-18T01:14:56;8.60;99.90
19389;DHT22;9830;41.876;23.474;2022-12-18T01:17:22;8.50;99.90
19389;DHT22;9830;41.876;23.474;2022-12-18T01:19:48;8.40;99.90
19389;DHT22;9830;41.876;23.474;2022-12-18T01:22:13;8.30;99.90
19389;DHT22;9830;41.876;23.474;2022-12-18T01:24:39;8.40;99.90
19389;DHT22;9830;41.876;23.474;2022-12-18T01:27:05;8.40;99.90
19389;DHT22;9830;41.876;23.474;2022-12-18T01:29:30;8.50;99.90
19389;DHT22;9830;41.876;23.474;2022-12-18T01:31:56;8.40;99.90
19389;DHT22;9830;41.876;23.474;2022-12-18T01:34:23;8.30;99.90
19389;DHT22;9830;41.876;23.474;2022-12-18T01:36:48;8.30;99.90
19389;DHT22;9830;41.876;23.474;2022-12-18T01:39:15;8.40;99.90
19389;DHT22;9830;41.876;23.474;2022-12-18T01:41:41;8.50;99.90
19389;DHT22;9830;41.876;23.474;2022-12-18T01:44:58;8.40;99.90
19389;DHT22;9830;41.876;23.474;2022-12-18T01:50:06;8.20;99.90
19389;DHT22;9830;41.876;23.474;2022-12-18T01:52:33;8.20;99.90
19389;DHT22;9830;41.876;23.474;2022-12-18T01:55:00;8.10;99.90
19389;DHT22;9830;41.876;23.474;2022-12-18T01:57:28;8.20;99.90
19389;DHT22;9830;41.876;23.474;2022-12-18T01:59:59;8.20;99.90
19389;DHT22;9830;41.876;23.474;2022-12-18T02:02:27;8.10;99.90
19389;DHT22;9830;41.876;23.474;2022-12-18T02:04:54;8.00;99.90
19389;DHT22;9830;41.876;23.474;2022-12-18T02:15:39;8.00;99.90
19389;DHT22;9830;41.876;23.474;2022-12-18T02:18:19;8.00;99.90
19389;DHT22;9830;41.876;23.474;2022-12-18T02:20:53;8.00;99.90
19389;DHT22;9830;41.876;23.474;2022-12-18T02:24:03;8.00;99.90
19389;DHT22;9830;41.876;23.474;2022-12-18T02:26:41;8.00;99.90
19389;DHT22;9830;41.876;23.474;2022-12-18T02:29:10;8.10;99.90
19389;DHT22;9830;41.876;23.474;2022-12-18T02:31:42;8.10;99.90
19389;DHT22;9830;41.876;23.474;2022-12-18T02:34:09;8.10;99.90
19389;DHT22;9830;41.876;23.474;2022-12-18T02:36:39;8.10;99.90
19389;DHT22;9830;41.876;23.474;2022-12-18T02:39:07;8.10;99.90
19389;DHT22;9830;41.876;23.474;2022-12-18T02:41:35;8.10;99.90
19389;DHT22;9830;41.876;23.474;2022-12-18T02:44:07;8.10;99.90
19389;DHT22;9830;41.876;23.474;2022-12-18T02:49:11;8.10;99.90
19389;DHT22;9830;41.876;23.474;2022-12-18T03:00:08;8.10;99.90
19389;DHT22;9830;41.876;23.474;2022-12-18T03:02:41;8.10;99.90
19389;DHT22;9830;41.876;23.474;2022-12-18T03:08:27;7.80;99.90
19389;DHT22;9830;41.876;23.474;2022-12-18T03:11:03;7.80;99.90
19389;DHT22;9830;41.876;23.474;2022-12-18T03:13:48;7.80;99.90
19389;DHT22;9830;41.876;23.474;2022-12-18T03:16:25;7.80;99.90
19389;DHT22;9830;41.876;23.474;2022-12-18T03:18:57;7.80;99.90
19389;DHT22;9830;41.876;23.474;2022-12-18T03:21:29;7.80;99.90
19389;DHT22;9830;41.876;23.474;2022-12-18T03:23:55;7.80;99.90
19389;DHT22;9830;41.876;23.474;2022-12-18T03:26:25;7.70;99.90
19389;DHT22;9830;41.876;23.474;2022-12-18T03:28:58;7.70;99.90
19389;DHT22;9830;41.876;23.474;2022-12-18T03:31:26;7.60;99.90
19389;DHT22;9830;41.876;23.474;2022-12-18T03:33:56;7.70;99.90
19389;DHT22;9830;41.876;23.474;2022-12-18T03:36:23;7.60;99.90
19389;DHT22;9830;41.876;23.474;2022-12-18T03:38:49;7.60;99.90
19389;DHT22;9830;41.876;23.474;2022-12-18T03:47:06;7.60;99.90
19389;DHT22;9830;41.876;23.474;2022-12-18T03:50:19;7.60;99.90
19389;DHT22;9830;41.876;23.474;2022-12-18T03:52:29;7.60;99.90
19389;DHT22;9830;41.876;23.474;2022-12-18T03:54:58;7.60;99.90
19389;DHT22;9830;41.876;23.474;2022-12-18T03:57:27;7.60;99.90
19389;DHT22;9830;41.876;23.474;2022-12-18T04:00:04;7.50;99.90
19389;DHT22;9830;41.876;23.474;2022-12-18T04:02:32;7.50;99.90
19389;DHT22;9830;41.876;23.474;2022-12-18T04:05:02;7.50;99.90
19389;DHT22;9830;41.876;23.474;2022-12-18T04:07:30;7.60;99.90
19389;DHT22;9830;41.876;23.474;2022-12-18T04:09:58;7.60;99.90
19389;DHT22;9830;41.876;23.474;2022-12-18T04:12:25;7.50;99.90
19389;DHT22;9830;41.876;23.474;2022-12-18T04:14:51;7.60;99.90
19389;DHT22;9830;41.876;23.474;2022-12-18T04:17:17;7.70;99.90
19389;DHT22;9830;41.876;23.474;2022-12-18T04:19:43;7.70;99.90
19389;DHT22;9830;41.876;23.474;2022-12-18T04:22:09;7.70;99.90
19389;DHT22;9830;41.876;23.474;2022-12-18T04:24:36;7.60;99.90
19389;DHT22;9830;41.876;23.474;2022-12-18T04:27:02;7.60;99.90
19389;DHT22;9830;41.876;23.474;2022-12-18T04:29:27;7.60;99.90
19389;DHT22;9830;41.876;23.474;2022-12-18T04:31:53;7.60;99.90
19389;DHT22;9830;41.876;23.474;2022-12-18T04:34:20;7.50;99.90
19389;DHT22;9830;41.876;23.474;2022-12-18T04:36:46;7.60;99.90
19389;DHT22;9830;41.876;23.474;2022-12-18T04:39:12;7.60;99.90
19389;DHT22;9830;41.876;23.474;2022-12-18T04:41:37;7.60;99.90
19389;DHT22;9830;41.876;23.474;2022-12-18T04:44:04;7.60;99.90
19389;DHT22;9830;41.876;23.474;2022-12-18T04:46:30;7.60;99.90
19389;DHT22;9830;41.876;23.474;2022-12-18T04:48:55;7.50;99.90
19389;DHT22;9830;41.876;23.474;2022-12-18T04:51:21;7.50;99.90
19389;DHT22;9830;41.876;23.474;2022-12-18T04:53:47;7.50;99.90
19389;DHT22;9830;41.876;23.474;2022-12-18T04:56:14;7.50;99.90
19389;DHT22;9830;41.876;23.474;2022-12-18T04:58:42;7.50;99.90
19389;DHT22;9830;41.876;23.474;2022-12-18T05:01:08;7.50;99.90
19389;DHT22;9830;41.876;23.474;2022-12-18T05:03:34;7.40;99.90
19389;DHT22;9830;41.876;23.474;2022-12-18T05:06:00;7.30;99.90
19389;DHT22;9830;41.876;23.474;2022-12-18T05:08:26;7.30;99.90
19389;DHT22;9830;41.876;23.474;2022-12-18T05:11:06;7.30;99.90
19389;DHT22;9830;41.876;23.474;2022-12-18T05:13:33;7.30;99.90
19389;DHT22;9830;41.876;23.474;2022-12-18T05:15:59;7.30;99.90
19389;DHT22;9830;41.876;23.474;2022-12-18T05:18:25;7.30;99.90
19389;DHT22;9830;41.876;23.474;2022-12-18T05:20:52;7.40;99.90
19389;DHT22;9830;41.876;23.474;2022-12-18T05:23:19;7.50;99.90
19389;DHT22;9830;41.876;23.474;2022-12-18T05:25:56;7.50;99.90
19389;DHT22;9830;41.876;23.474;2022-12-18T05:28:23;7.50;99.90
19389;DHT22;9830;41.876;23.474;2022-12-18T05:30:51;7.50;99.90
19389;DHT22;9830;41.876;23.474;2022-12-18T05:33:17;7.40;99.90
19389;DHT22;9830;41.876;23.474;2022-12-18T05:35:43;7.30;99.90
19389;DHT22;9830;41.876;23.474;2022-12-18T05:38:09;7.30;99.90
19389;DHT22;9830;41.876;23.474;2022-12-18T05:40:35;7.30;99.90
19389;DHT22;9830;41.876;23.474;2022-12-18T05:43:05;7.30;99.90
19389;DHT22;9830;41.876;23.474;2022-12-18T05:45:30;7.30;99.90
19389;DHT22;9830;41.876;23.474;2022-12-18T05:47:56;7.30;99.90
19389;DHT22;9830;41.876;23.474;2022-12-18T05:50:22;7.30;99.90
19389;DHT22;9830;41.876;23.474;2022-12-18T05:52:47;7.40;99.90
19389;DHT22;9830;41.876;23.474;2022-12-18T05:55:13;7.40;99.90
19389;DHT22;9830;41.876;23.474;2022-12-18T05:57:38;7.30;99.90
19389;DHT22;9830;41.876;23.474;2022-12-18T06:00:04;7.30;99.90
19389;DHT22;9830;41.876;23.474;2022-12-18T06:02:30;7.30;99.90
19389;DHT22;9830;41.876;23.474;2022-12-18T06:04:56;7.30;99.90
19389;DHT22;9830;41.876;23.474;2022-12-18T06:07:21;7.30;99.90
19389;DHT22;9830;41.876;23.474;2022-12-18T06:09:47;7.30;99.90
19389;DHT22;9830;41.876;23.474;2022-12-18T06:12:13;7.30;99.90
19389;DHT22;9830;41.876;23.474;2022-12-18T06:14:38;7.30;99.90
19389;DHT22;9830;41.876;23.474;2022-12-18T06:17:04;7.40;99.90
19389;DHT22;9830;41.876;23.474;2022-12-18T06:19:30;7.40;99.90
19389;DHT22;9830;41.876;23.474;2022-12-18T06:21:55;7.60;99.90
19389;DHT22;9830;41.876;23.474;2022-12-18T06:24:23;7.70;99.90
19389;DHT22;9830;41.876;23.474;2022-12-18T06:26:48;7.80;99.90
19389;DHT22;9830;41.876;23.474;2022-12-18T06:29:14;7.80;99.90
19389;DHT22;9830;41.876;23.474;2022-12-18T06:31:40;7.80;99.90
19389;DHT22;9830;41.876;23.474;2022-12-18T06:34:05;7.80;99.90
19389;DHT22;9830;41.876;23.474;2022-12-18T06:36:31;7.70;99.90
19389;DHT22;9830;41.876;23.474;2022-12-18T06:38:57;7.80;99.90
19389;DHT22;9830;41.876;23.474;2022-12-18T06:41:23;7.80;99.90
19389;DHT22;9830;41.876;23.474;2022-12-18T06:43:48;7.90;99.90
19389;DHT22;9830;41.876;23.474;2022-12-18T06:46:14;7.90;99.90
19389;DHT22;9830;41.876;23.474;2022-12-18T06:48:40;7.90;99.90
19389;DHT22;9830;41.876;23.474;2022-12-18T06:51:06;7.80;99.90
19389;DHT22;9830;41.876;23.474;2022-12-18T06:53:32;7.70;99.90
19389;DHT22;9830;41.876;23.474;2022-12-18T06:56:06;7.70;99.90
19389;DHT22;9830;41.876;23.474;2022-12-18T06:58:32;7.80;99.90
19389;DHT22;9830;41.876;23.474;2022-12-18T07:01:06;7.90;99.90
19389;DHT22;9830;41.876;23.474;2022-12-18T07:03:32;7.90;99.90
19389;DHT22;9830;41.876;23.474;2022-12-18T07:05:58;7.90;99.90
19389;DHT22;9830;41.876;23.474;2022-12-18T07:08:24;8.00;99.90
19389;DHT22;9830;41.876;23.474;2022-12-18T07:10:50;8.10;99.90
19389;DHT22;9830;41.876;23.474;2022-12-18T07:13:16;8.10;99.90
19389;DHT22;9830;41.876;23.474;2022-12-18T07:15:42;8.00;99.90
19389;DHT22;9830;41.876;23.474;2022-12-18T07:18:08;7.80;99.90
19389;DHT22;9830;41.876;23.474;2022-12-18T07:20:34;7.80;99.90
19389;DHT22;9830;41.876;23.474;2022-12-18T07:23:04;7.70;99.90
19389;DHT22;9830;41.876;23.474;2022-12-18T07:25:36;7.70;99.90
19389;DHT22;9830;41.876;23.474;2022-12-18T07:28:03;7.80;99.90
19389;DHT22;9830;41.876;23.474;2022-12-18T07:30:29;7.90;99.90
19389;DHT22;9830;41.876;23.474;2022-12-18T07:32:54;8.00;99.90
19389;DHT22;9830;41.876;23.474;2022-12-18T07:35:20;7.90;99.90
19389;DHT22;9830;41.876;23.474;2022-12-18T07:37:45;7.80;99.90
19389;DHT22;9830;41.876;23.474;2022-12-18T07:40:11;7.80;99.90
19389;DHT22;9830;41.876;23.474;2022-12-18T07:42:37;7.80;99.90
19389;DHT22;9830;41.876;23.474;2022-12-18T07:45:04;7.80;99.90
19389;DHT22;9830;41.876;23.474;2022-12-18T07:47:36;8.00;99.90
19389;DHT22;9830;41.876;23.474;2022-12-18T07:50:03;8.10;99.90
19389;DHT22;9830;41.876;23.474;2022-12-18T07:52:28;8.20;99.90
19389;DHT22;9830;41.876;23.474;2022-12-18T07:54:54;8.20;99.90
19389;DHT22;9830;41.876;23.474;2022-12-18T07:57:19;8.20;99.90
19389;DHT22;9830;41.876;23.474;2022-12-18T07:59:45;8.30;99.90
19389;DHT22;9830;41.876;23.474;2022-12-18T08:02:11;8.20;99.90
19389;DHT22;9830;41.876;23.474;2022-12-18T08:04:37;8.20;99.90
19389;DHT22;9830;41.876;23.474;2022-12-18T08:07:02;8.30;99.90
19389;DHT22;9830;41.876;23.474;2022-12-18T08:09:28;8.40;99.90
19389;DHT22;9830;41.876;23.474;2022-12-18T08:11:54;8.40;99.90
19389;DHT22;9830;41.876;23.474;2022-12-18T08:14:19;8.60;99.90
19389;DHT22;9830;41.876;23.474;2022-12-18T08:16:45;8.70;99.90
19389;DHT22;9830;41.876;23.474;2022-12-18T08:19:11;8.80;99.90
19389;DHT22;9830;41.876;23.474;2022-12-18T08:21:37;8.80;99.90
19389;DHT22;9830;41.876;23.474;2022-12-18T08:24:02;8.80;99.90
19389;DHT22;9830;41.876;23.474;2022-12-18T08:26:30;8.80;99.90
19389;DHT22;9830;41.876;23.474;2022-12-18T08:28:57;8.70;99.90
19389;DHT22;9830;41.876;23.474;2022-12-18T08:31:23;8.70;99.90
19389;DHT22;9830;41.876;23.474;2022-12-18T08:33:51;8.70;99.90
19389;DHT22;9830;41.876;23.474;2022-12-18T08:36:18;8.80;99.90
19389;DHT22;9830;41.876;23.474;2022-12-18T08:38:44;8.70;99.90
19389;DHT22;9830;41.876;23.474;2022-12-18T08:41:14;8.80;99.90
19389;DHT22;9830;41.876;23.474;2022-12-18T08:43:40;9.00;99.90
19389;DHT22;9830;41.876;23.474;2022-12-18T08:46:26;9.20;99.90
19389;DHT22;9830;41.876;23.474;2022-12-18T08:48:53;9.60;99.90
19389;DHT22;9830;41.876;23.474;2022-12-18T08:51:20;9.80;99.90
19389;DHT22;9830;41.876;23.474;2022-12-18T08:53:46;9.90;99.90
19389;DHT22;9830;41.876;23.474;2022-12-18T08:56:12;10.10;99.90
19389;DHT22;9830;41.876;23.474;2022-12-18T08:58:38;10.10;99.90
19389;DHT22;9830;41.876;23.474;2022-12-18T09:01:06;10.10;99.90
19389;DHT22;9830;41.876;23.474;2022-12-18T09:03:32;10.10;99.90
19389;DHT22;9830;41.876;23.474;2022-12-18T09:05:58;10.30;99.90
19389;DHT22;9830;41.876;23.474;2022-12-18T09:08:25;10.40;99.90
19389;DHT22;9830;41.876;23.474;2022-12-18T09:10:51;10.40;99.90
19389;DHT22;9830;41.876;23.474;2022-12-18T09:13:18;10.50;99.90
19389;DHT22;9830;41.876;23.474;2022-12-18T09:15:54;10.70;99.90
19389;DHT22;9830;41.876;23.474;2022-12-18T09:18:22;10.90;99.90
19389;DHT22;9830;41.876;23.474;2022-12-18T09:20:48;11.20;99.90
19389;DHT22;9830;41.876;23.474;2022-12-18T09:23:15;11.20;99.90
19389;DHT22;9830;41.876;23.474;2022-12-18T09:25:41;11.30;99.90
19389;DHT22;9830;41.876;23.474;2022-12-18T09:30:41;11.30;99.90
19389;DHT22;9830;41.876;23.474;2022-12-18T09:33:07;11.10;99.90
19389;DHT22;9830;41.876;23.474;2022-12-18T09:35:35;11.10;99.90
19389;DHT22;9830;41.876;23.474;2022-12-18T09:38:06;11.10;99.90
19389;DHT22;9830;41.876;23.474;2022-12-18T09:40:44;11.00;99.90
19389;DHT22;9830;41.876;23.474;2022-12-18T09:43:24;11.00;99.90
19389;DHT22;9830;41.876;23.474;2022-12-18T09:45:56;10.90;99.90
19389;DHT22;9830;41.876;23.474;2022-12-18T09:48:45;10.60;99.90
19389;DHT22;9830;41.876;23.474;2022-12-18T09:51:15;10.30;99.90
19389;DHT22;9830;41.876;23.474;2022-12-18T09:53:47;10.20;99.90
19389;DHT22;9830;41.876;23.474;2022-12-18T09:56:20;10.30;99.90
19389;DHT22;9830;41.876;23.474;2022-12-18T09:59:02;10.30;99.90
19389;DHT22;9830;41.876;23.474;2022-12-18T10:01:29;10.40;99.90
19389;DHT22;9830;41.876;23.474;2022-12-18T10:03:55;10.30;99.90
19389;DHT22;9830;41.876;23.474;2022-12-18T10:06:26;10.40;99.90
19389;DHT22;9830;41.876;23.474;2022-12-18T10:22:16;10.80;99.90
19389;DHT22;9830;41.876;23.474;2022-12-18T10:24:55;10.90;99.90
19389;DHT22;9830;41.876;23.474;2022-12-18T10:27:25;11.10;99.90
19389;DHT22;9830;41.876;23.474;2022-12-18T10:29:51;11.20;99.90
19389;DHT22;9830;41.876;23.474;2022-12-18T10:32:26;11.30;99.90
19389;DHT22;9830;41.876;23.474;2022-12-18T10:34:54;11.30;99.90
19389;DHT22;9830;41.876;23.474;2022-12-18T10:37:24;11.00;99.90
19389;DHT22;9830;41.876;23.474;2022-12-18T10:40:16;10.80;99.90
19389;DHT22;9830;41.876;23.474;2022-12-18T10:42:41;10.70;99.90
19389;DHT22;9830;41.876;23.474;2022-12-18T10:45:17;10.70;99.90
19389;DHT22;9830;41.876;23.474;2022-12-18T10:47:49;10.80;99.90
19389;DHT22;9830;41.876;23.474;2022-12-18T10:50:32;10.80;99.90
19389;DHT22;9830;41.876;23.474;2022-12-18T10:53:03;10.90;99.90
19389;DHT22;9830;41.876;23.474;2022-12-18T10:55:35;11.10;99.90
19389;DHT22;9830;41.876;23.474;2022-12-18T11:00:45;11.30;99.90
19389;DHT22;9830;41.876;23.474;2022-12-18T11:03:35;11.30;99.90
19389;DHT22;9830;41.876;23.474;2022-12-18T11:06:12;11.30;99.90
19389;DHT22;9830;41.876;23.474;2022-12-18T11:08:39;11.50;99.90
19389;DHT22;9830;41.876;23.474;2022-12-18T11:11:20;11.40;99.90
19389;DHT22;9830;41.876;23.474;2022-12-18T11:14:00;11.30;99.90
19389;DHT22;9830;41.876;23.474;2022-12-18T11:16:28;11.30;99.90
19389;DHT22;9830;41.876;23.474;2022-12-18T11:19:13;11.20;99.90
19389;DHT22;9830;41.876;23.474;2022-12-18T11:21:41;11.10;99.90
19389;DHT22;9830;41.876;23.474;2022-12-18T11:24:18;10.80;99.90
19389;DHT22;9830;41.876;23.474;2022-12-18T11:26:44;10.50;99.90
19389;DHT22;9830;41.876;23.474;2022-12-18T11:29:17;10.40;99.90
19389;DHT22;9830;41.876;23.474;2022-12-18T11:31:42;10.40;99.90
19389;DHT22;9830;41.876;23.474;2022-12-18T11:34:27;10.40;99.90
19389;DHT22;9830;41.876;23.474;2022-12-18T11:36:54;10.40;99.90
19389;DHT22;9830;41.876;23.474;2022-12-18T11:39:36;10.30;99.90
19389;DHT22;9830;41.876;23.474;2022-12-18T11:42:18;10.30;99.90
19389;DHT22;9830;41.876;23.474;2022-12-18T11:47:37;10.10;99.90
19389;DHT22;9830;41.876;23.474;2022-12-18T11:50:14;10.10;99.90
19389;DHT22;9830;41.876;23.474;2022-12-18T11:52:41;10.10;99.90
19389;DHT22;9830;41.876;23.474;2022-12-18T11:55:11;10.10;99.90
19389;DHT22;9830;41.876;23.474;2022-12-18T12:00:26;10.10;99.90
19389;DHT22;9830;41.876;23.474;2022-12-18T12:16:44;9.80;99.90
19389;DHT22;9830;41.876;23.474;2022-12-18T12:27:28;9.80;99.90
19389;DHT22;9830;41.876;23.474;2022-12-18T12:30:16;9.70;99.90
19389;DHT22;9830;41.876;23.474;2022-12-18T12:35:44;9.60;99.90
19389;DHT22;9830;41.876;23.474;2022-12-18T12:38:28;9.40;99.90
19389;DHT22;9830;41.876;23.474;2022-12-18T12:41:00;9.40;99.90
19389;DHT22;9830;41.876;23.474;2022-12-18T12:43:45;9.40;99.90
19389;DHT22;9830;41.876;23.474;2022-12-18T12:46:16;9.40;99.90
19389;DHT22;9830;41.876;23.474;2022-12-18T12:51:22;9.30;99.90
19389;DHT22;9830;41.876;23.474;2022-12-18T12:53:49;9.20;99.90
19389;DHT22;9830;41.876;23.474;2022-12-18T12:56:18;9.20;99.90
19389;DHT22;9830;41.876;23.474;2022-12-18T13:02:03;9.10;99.90
19389;DHT22;9830;41.876;23.474;2022-12-18T13:10:28;9.00;99.90
19389;DHT22;9830;41.876;23.474;2022-12-18T13:20:40;8.50;99.90
19389;DHT22;9830;41.876;23.474;2022-12-18T13:34:18;8.00;99.90
19389;DHT22;9830;41.876;23.474;2022-12-18T13:36:45;7.90;99.90
19389;DHT22;9830;41.876;23.474;2022-12-18T13:41:40;7.80;99.90
19389;DHT22;9830;41.876;23.474;2022-12-18T13:46:51;7.50;99.90
19389;DHT22;9830;41.876;23.474;2022-12-18T13:49:46;7.40;99.90
19389;DHT22;9830;41.876;23.474;2022-12-18T13:52:21;7.40;99.90
19389;DHT22;9830;41.876;23.474;2022-12-18T13:54:57;7.40;99.90
19389;DHT22;9830;41.876;23.474;2022-12-18T13:57:35;7.40;99.90
19389;DHT22;9830;41.876;23.474;2022-12-18T14:02:48;7.30;99.90
19389;DHT22;9830;41.876;23.474;2022-12-18T14:05:24;7.10;99.90
19389;DHT22;9830;41.876;23.474;2022-12-18T14:07:51;7.10;99.90
19389;DHT22;9830;41.876;23.474;2022-12-18T14:10:17;7.00;99.90
19389;DHT22;9830;41.876;23.474;2022-12-18T14:12:50;7.00;99.90
19389;DHT22;9830;41.876;23.474;2022-12-18T14:15:32;6.90;99.90
19389;DHT22;9830;41.876;23.474;2022-12-18T14:17:59;6.80;99.90
19389;DHT22;9830;41.876;23.474;2022-12-18T14:20:28;6.70;99.90
19389;DHT22;9830;41.876;23.474;2022-12-18T14:22:55;6.70;99.90
19389;DHT22;9830;41.876;23.474;2022-12-18T14:25:22;6.70;99.90
19389;DHT22;9830;41.876;23.474;2022-12-18T14:28:13;6.60;99.90
19389;DHT22;9830;41.876;23.474;2022-12-18T14:30:41;6.60;99.90
19389;DHT22;9830;41.876;23.474;2022-12-18T14:35:58;6.50;99.90
19389;DHT22;9830;41.876;23.474;2022-12-18T14:38:35;6.50;99.90
19389;DHT22;9830;41.876;23.474;2022-12-18T14:41:20;6.50;99.90
19389;DHT22;9830;41.876;23.474;2022-12-18T14:43:48;6.50;99.90
19389;DHT22;9830;41.876;23.474;2022-12-18T14:46:36;6.50;99.90
19389;DHT22;9830;41.876;23.474;2022-12-18T14:51:57;6.50;99.90
19389;DHT22;9830;41.876;23.474;2022-12-18T14:54:24;6.50;99.90
19389;DHT22;9830;41.876;23.474;2022-12-18T14:57:05;6.50;99.90
19389;DHT22;9830;41.876;23.474;2022-12-18T14:59:31;6.40;99.90
19389;DHT22;9830;41.876;23.474;2022-12-18T15:04:32;6.40;99.90
19389;DHT22;9830;41.876;23.474;2022-12-18T15:09:35;6.30;99.90
19389;DHT22;9830;41.876;23.474;2022-12-18T15:12:01;6.30;99.90
19389;DHT22;9830;41.876;23.474;2022-12-18T15:14:31;6.30;99.90
19389;DHT22;9830;41.876;23.474;2022-12-18T15:16:59;6.40;99.90
19389;DHT22;9830;41.876;23.474;2022-12-18T15:19:46;6.40;99.90
19389;DHT22;9830;41.876;23.474;2022-12-18T15:22:27;6.30;99.90
19389;DHT22;9830;41.876;23.474;2022-12-18T15:24:55;6.30;99.90
19389;DHT22;9830;41.876;23.474;2022-12-18T15:27:42;6.40;99.90
19389;DHT22;9830;41.876;23.474;2022-12-18T15:30:18;6.40;99.90
19389;DHT22;9830;41.876;23.474;2022-12-18T15:32:44;6.40;99.90
19389;DHT22;9830;41.876;23.474;2022-12-18T15:35:21;6.50;99.90
19389;DHT22;9830;41.876;23.474;2022-12-18T15:37:48;6.60;99.90
19389;DHT22;9830;41.876;23.474;2022-12-18T15:40:20;6.60;99.90
19389;DHT22;9830;41.876;23.474;2022-12-18T15:42:46;6.60;99.90
19389;DHT22;9830;41.876;23.474;2022-12-18T15:45:31;6.60;99.90
19389;DHT22;9830;41.876;23.474;2022-12-18T15:47:57;6.50;99.90
19389;DHT22;9830;41.876;23.474;2022-12-18T15:50:23;6.40;99.90
19389;DHT22;9830;41.876;23.474;2022-12-18T15:52:50;6.40;99.90
19389;DHT22;9830;41.876;23.474;2022-12-18T15:55:19;6.50;99.90
19389;DHT22;9830;41.876;23.474;2022-12-18T15:58:05;6.50;99.90
19389;DHT22;9830;41.876;23.474;2022-12-18T16:00:32;6.50;99.90
19389;DHT22;9830;41.876;23.474;2022-12-18T16:02:59;6.60;99.90
19389;DHT22;9830;41.876;23.474;2022-12-18T16:05:26;6.60;99.90
19389;DHT22;9830;41.876;23.474;2022-12-18T16:07:53;6.60;99.90
19389;DHT22;9830;41.876;23.474;2022-12-18T16:10:19;6.60;99.90
19389;DHT22;9830;41.876;23.474;2022-12-18T16:12:44;6.60;99.90
19389;DHT22;9830;41.876;23.474;2022-12-18T16:15:12;6.60;99.90
19389;DHT22;9830;41.876;23.474;2022-12-18T16:17:39;6.60;99.90
19389;DHT22;9830;41.876;23.474;2022-12-18T16:20:11;6.50;99.90
19389;DHT22;9830;41.876;23.474;2022-12-18T16:22:37;6.60;99.90
19389;DHT22;9830;41.876;23.474;2022-12-18T16:25:03;6.50;99.90
19389;DHT22;9830;41.876;23.474;2022-12-18T16:27:30;6.50;99.90
19389;DHT22;9830;41.876;23.474;2022-12-18T16:29:56;6.50;99.90
19389;DHT22;9830;41.876;23.474;2022-12-18T16:32:22;6.50;99.90
19389;DHT22;9830;41.876;23.474;2022-12-18T16:34:48;6.50;99.90
19389;DHT22;9830;41.876;23.474;2022-12-18T16:37:15;6.40;99.90
19389;DHT22;9830;41.876;23.474;2022-12-18T16:39:41;6.40;99.90
19389;DHT22;9830;41.876;23.474;2022-12-18T16:42:11;6.40;99.90
19389;DHT22;9830;41.876;23.474;2022-12-18T16:44:42;6.30;99.90
19389;DHT22;9830;41.876;23.474;2022-12-18T16:47:08;6.30;99.90
19389;DHT22;9830;41.876;23.474;2022-12-18T16:49:34;6.30;99.90
19389;DHT22;9830;41.876;23.474;2022-12-18T16:52:00;6.20;99.90
19389;DHT22;9830;41.876;23.474;2022-12-18T16:54:26;6.10;99.90
19389;DHT22;9830;41.876;23.474;2022-12-18T16:56:55;6.10;99.90
19389;DHT22;9830;41.876;23.474;2022-12-18T16:59:21;6.10;99.90
19389;DHT22;9830;41.876;23.474;2022-12-18T17:01:48;6.00;99.90
19389;DHT22;9830;41.876;23.474;2022-12-18T17:04:14;5.90;99.90
19389;DHT22;9830;41.876;23.474;2022-12-18T17:06:43;6.00;99.90
19389;DHT22;9830;41.876;23.474;2022-12-18T17:09:13;5.90;99.90
19389;DHT22;9830;41.876;23.474;2022-12-18T17:11:41;5.90;99.90
19389;DHT22;9830;41.876;23.474;2022-12-18T17:14:16;5.90;99.90
19389;DHT22;9830;41.876;23.474;2022-12-18T17:16:42;5.90;99.90
19389;DHT22;9830;41.876;23.474;2022-12-18T17:19:09;5.80;99.90
19389;DHT22;9830;41.876;23.474;2022-12-18T17:21:35;5.80;99.90
19389;DHT22;9830;41.876;23.474;2022-12-18T17:24:01;5.70;99.90
19389;DHT22;9830;41.876;23.474;2022-12-18T17:26:27;5.70;99.90
19389;DHT22;9830;41.876;23.474;2022-12-18T17:28:56;5.60;99.90
19389;DHT22;9830;41.876;23.474;2022-12-18T17:31:23;5.60;99.90
19389;DHT22;9830;41.876;23.474;2022-12-18T17:33:50;5.60;99.90
19389;DHT22;9830;41.876;23.474;2022-12-18T17:36:16;5.60;99.90
19389;DHT22;9830;41.876;23.474;2022-12-18T17:38:42;5.50;99.90
19389;DHT22;9830;41.876;23.474;2022-12-18T17:41:10;5.50;99.90
19389;DHT22;9830;41.876;23.474;2022-12-18T17:43:36;5.50;99.90
19389;DHT22;9830;41.876;23.474;2022-12-18T17:46:12;5.40;99.90
19389;DHT22;9830;41.876;23.474;2022-12-18T17:48:39;5.40;99.90
19389;DHT22;9830;41.876;23.474;2022-12-18T17:51:06;5.30;99.90
19389;DHT22;9830;41.876;23.474;2022-12-18T17:53:32;5.20;99.90
19389;DHT22;9830;41.876;23.474;2022-12-18T17:55:59;5.20;99.90
19389;DHT22;9830;41.876;23.474;2022-12-18T17:58:26;5.20;99.90
19389;DHT22;9830;41.876;23.474;2022-12-18T18:00:52;5.10;99.90
19389;DHT22;9830;41.876;23.474;2022-12-18T18:03:18;5.10;99.90
19389;DHT22;9830;41.876;23.474;2022-12-18T18:05:44;5.10;99.90